sensor_id;sensor_type;location;lat;lon;timestamp;temperature;humidity
35027;DHT22;60696;51.426;6.934;2024-01-30T05:02:52;9.30;99.90
35027;DHT22;60696;51.426;6.934;2024-01-30T05:05:17;9.20;99.90
35027;DHT22;60696;51.426;6.934;2024-01-30T05:07:43;9.20;99.90
35027;DHT22;60696;51.426;6.934;2024-01-30T05:10:09;9.20;99.90
35027;DHT22;60696;51.426;6.934;2024-01-30T05:12:34;9.20;99.90
35027;DHT22;60696;51.426;6.934;2024-01-30T05:15:00;9.20;99.90
35027;DHT22;60696;51.426;6.934;2024-01-30T05:17:25;9.10;99.90
35027;DHT22;60696;51.426;6.934;2024-01-30T05:19:51;9.20;99.90
35027;DHT22;60696;51.426;6.934;2024-01-30T05:22:16;9.20;99.90
35027;DHT22;60696;51.426;6.934;2024-01-30T05:24:44;9.20;99.90
35027;DHT22;60696;51.426;6.934;2024-01-30T05:27:09;9.10;99.90
35027;DHT22;60696;51.426;6.934;2024-01-30T05:29:35;9.20;99.90
35027;DHT22;60696;51.426;6.934;2024-01-30T05:32:01;9.20;99.90
35027;DHT22;60696;51.426;6.934;2024-01-30T05:34:27;9.20;99.90
35027;DHT22;60696;51.426;6.934;2024-01-30T05:36:52;9.20;99.90
35027;DHT22;60696;51.426;6.934;2024-01-30T05:39:18;9.20;99.90
35027;DHT22;60696;51.426;6.934;2024-01-30T05:41:43;9.20;99.90
35027;DHT22;60696;51.426;6.934;2024-01-30T05:44:09;9.20;99.90
35027;DHT22;60696;51.426;6.934;2024-01-30T05:46:35;9.30;99.90
35027;DHT22;60696;51.426;6.934;2024-01-30T05:49:01;9.10;99.90
35027;DHT22;60696;51.426;6.934;2024-01-30T05:51:26;9.20;99.90
35027;DHT22;60696;51.426;6.934;2024-01-30T05:53:53;9.30;99.90
35027;DHT22;60696;51.426;6.934;2024-01-30T05:56:19;9.20;99.90
35027;DHT22;60696;51.426;6.934;2024-01-30T05:58:45;9.20;99.90
35027;DHT22;60696;51.426;6.934;2024-01-30T06:01:10;9.10;99.90
35027;DHT22;60696;51.426;6.934;2024-01-30T06:03:36;9.20;99.90
35027;DHT22;60696;51.426;6.934;2024-01-30T06:06:02;9.20;99.90
35027;DHT22;60696;51.426;6.934;2024-01-30T06:08:28;9.30;99.90
35027;DHT22;60696;51.426;6.934;2024-01-30T06:10:53;9.30;99.90
35027;DHT22;60696;51.426;6.934;2024-01-30T06:13:20;9.20;99.90
35027;DHT22;60696;51.426;6.934;2024-01-30T06:15:46;9.30;99.90
35027;DHT22;60696;51.426;6.934;2024-01-30T06:18:11;9.30;99.90
35027;DHT22;60696;51.426;6.934;2024-01-30T06:20:37;9.30;99.90
35027;DHT22;60696;51.426;6.934;2024-01-30T06:23:03;9.20;99.90
35027;DHT22;60696;51.426;6.934;2024-01-30T06:25:28;9.30;99.90
35027;DHT22;60696;51.426;6.934;2024-01-30T06:27:54;9.40;99.90
35027;DHT22;60696;51.426;6.934;2024-01-30T06:30:19;9.30;99.90
35027;DHT22;60696;51.426;6.934;2024-01-30T06:32:45;9.20;99.90
35027;DHT22;60696;51.426;6.934;2024-01-30T06:35:10;9.30;99.90
35027;DHT22;60696;51.426;6.934;2024-01-30T06:37:36;9.40;99.90
35027;DHT22;60696;51.426;6.934;2024-01-30T06:40:02;9.40;99.90
35027;DHT22;60696;51.426;6.934;2024-01-30T06:42:30;9.40;99.90
35027;DHT22;60696;51.426;6.934;2024-01-30T06:44:56;9.40;99.90
35027;DHT22;60696;51.426;6.934;2024-01-30T06:47:21;9.50;99.90
35027;DHT22;60696;51.426;6.934;2024-01-30T06:49:47;9.50;99.90
35027;DHT22;60696;51.426;6.934;2024-01-30T06:52:13;9.50;99.90
35027;DHT22;60696;51.426;6.934;2024-01-30T06:54:39;9.50;99.90
35027;DHT22;60696;51.426;6.934;2024-01-30T06:57:05;9.60;99.90
35027;DHT22;60696;51.426;6.934;2024-01-30T06:59:34;9.60;99.90
35027;DHT22;60696;51.426;6.934;2024-01-30T07:02:00;9.50;99.90
35027;DHT22;60696;51.426;6.934;2024-01-30T07:04:25;9.40;99.90
35027;DHT22;60696;51.426;6.934;2024-01-30T07:06:51;9.50;99.90
35027;DHT22;60696;51.426;6.934;2024-01-30T07:09:18;9.50;99.90
35027;DHT22;60696;51.426;6.934;2024-01-30T07:11:44;9.60;99.90
35027;DHT22;60696;51.426;6.934;2024-01-30T07:14:10;9.50;99.90
35027;DHT22;60696;51.426;6.934;2024-01-30T07:16:35;9.40;99.90
35027;DHT22;60696;51.426;6.934;2024-01-30T07:19:01;9.40;99.90
35027;DHT22;60696;51.426;6.934;2024-01-30T07:21:27;9.40;99.90
35027;DHT22;60696;51.426;6.934;2024-01-30T07:23:57;9.30;99.90
35027;DHT22;60696;51.426;6.934;2024-01-30T07:26:23;9.30;99.90
35027;DHT22;60696;51.426;6.934;2024-01-30T07:28:49;9.30;1.00
35027;DHT22;60696;51.426;6.934;2024-01-30T07:31:15;9.40;99.90
35027;DHT22;60696;51.426;6.934;2024-01-30T07:33:41;9.40;99.90
35027;DHT22;60696;51.426;6.934;2024-01-30T07:36:07;9.50;99.90
35027;DHT22;60696;51.426;6.934;2024-01-30T07:38:32;9.50;99.90
35027;DHT22;60696;51.426;6.934;2024-01-30T07:40:58;9.60;99.90
35027;DHT22;60696;51.426;6.934;2024-01-30T07:43:24;9.60;99.90
35027;DHT22;60696;51.426;6.934;2024-01-30T07:45:49;9.60;99.90
35027;DHT22;60696;51.426;6.934;2024-01-30T07:48:15;9.70;99.90
35027;DHT22;60696;51.426;6.934;2024-01-30T07:50:40;9.70;99.90
35027;DHT22;60696;51.426;6.934;2024-01-30T07:53:06;9.70;99.90
35027;DHT22;60696;51.426;6.934;2024-01-30T07:55:32;9.80;99.90
35027;DHT22;60696;51.426;6.934;2024-01-30T07:57:58;9.80;99.90
35027;DHT22;60696;51.426;6.934;2024-01-30T08:00:26;9.80;99.90
35027;DHT22;60696;51.426;6.934;2024-01-30T08:02:52;9.80;99.90
35027;DHT22;60696;51.426;6.934;2024-01-30T08:05:22;9.80;99.90
35027;DHT22;60696;51.426;6.934;2024-01-30T08:07:49;9.90;99.90
35027;DHT22;60696;51.426;6.934;2024-01-30T08:10:15;9.90;99.90
35027;DHT22;60696;51.426;6.934;2024-01-30T08:12:41;9.90;99.90
35027;DHT22;60696;51.426;6.934;2024-01-30T08:15:07;9.80;99.90
35027;DHT22;60696;51.426;6.934;2024-01-30T08:17:33;9.80;99.90
35027;DHT22;60696;51.426;6.934;2024-01-30T08:19:59;9.80;99.90
35027;DHT22;60696;51.426;6.934;2024-01-30T08:22:25;9.70;99.90
35027;DHT22;60696;51.426;6.934;2024-01-30T08:24:53;9.70;99.90
35027;DHT22;60696;51.426;6.934;2024-01-30T08:27:19;9.70;99.90
35027;DHT22;60696;51.426;6.934;2024-01-30T08:29:45;9.80;99.90
35027;DHT22;60696;51.426;6.934;2024-01-30T08:32:11;9.80;99.90
35027;DHT22;60696;51.426;6.934;2024-01-30T08:34:36;9.80;99.90
35027;DHT22;60696;51.426;6.934;2024-01-30T08:37:02;9.70;99.90
35027;DHT22;60696;51.426;6.934;2024-01-30T08:39:28;9.80;99.90
35027;DHT22;60696;51.426;6.934;2024-01-30T08:41:54;9.90;99.90
35027;DHT22;60696;51.426;6.934;2024-01-30T08:44:19;9.90;99.90
35027;DHT22;60696;51.426;6.934;2024-01-30T08:46:45;9.80;99.90
35027;DHT22;60696;51.426;6.934;2024-01-30T08:49:11;9.80;99.90
35027;DHT22;60696;51.426;6.934;2024-01-30T08:51:39;9.80;99.90
35027;DHT22;60696;51.426;6.934;2024-01-30T08:54:04;9.90;99.90
35027;DHT22;60696;51.426;6.934;2024-01-30T08:56:32;9.90;99.90
35027;DHT22;60696;51.426;6.934;2024-01-30T08:58:58;10.00;99.90
35027;DHT22;60696;51.426;6.934;2024-01-30T09:01:24;10.00;99.90
35027;DHT22;60696;51.426;6.934;2024-01-30T09:03:50;10.00;99.90
35027;DHT22;60696;51.426;6.934;2024-01-30T09:06:15;10.10;99.90
35027;DHT22;60696;51.426;6.934;2024-01-30T09:08:41;10.10;99.90
35027;DHT22;60696;51.426;6.934;2024-01-30T09:11:13;10.10;99.90
35027;DHT22;60696;51.426;6.934;2024-01-30T09:13:40;10.10;99.90
35027;DHT22;60696;51.426;6.934;2024-01-30T09:16:06;10.10;99.90
35027;DHT22;60696;51.426;6.934;2024-01-30T09:18:34;10.10;99.90
35027;DHT22;60696;51.426;6.934;2024-01-30T09:21:00;10.10;99.90
35027;DHT22;60696;51.426;6.934;2024-01-30T09:23:27;10.10;99.90
35027;DHT22;60696;51.426;6.934;2024-01-30T09:25:53;10.10;99.90
35027;DHT22;60696;51.426;6.934;2024-01-30T09:28:19;10.10;99.90
35027;DHT22;60696;51.426;6.934;2024-01-30T09:30:44;10.20;99.90
35027;DHT22;60696;51.426;6.934;2024-01-30T09:33:10;10.30;99.90
35027;DHT22;60696;51.426;6.934;2024-01-30T09:35:38;10.30;91.00
35027;DHT22;60696;51.426;6.934;2024-01-30T09:38:04;10.40;99.90
35027;DHT22;60696;51.426;6.934;2024-01-30T09:40:30;10.50;57.80
35027;DHT22;60696;51.426;6.934;2024-01-30T09:42:56;10.60;1.00
35027;DHT22;60696;51.426;6.934;2024-01-30T09:45:25;10.80;1.00
35027;DHT22;60696;51.426;6.934;2024-01-30T09:47:52;11.10;1.00
35027;DHT22;60696;51.426;6.934;2024-01-30T09:50:19;11.50;1.00
35027;DHT22;60696;51.426;6.934;2024-01-30T09:52:46;12.20;99.90
35027;DHT22;60696;51.426;6.934;2024-01-30T09:55:12;12.70;99.90
35027;DHT22;60696;51.426;6.934;2024-01-30T09:57:38;12.60;99.90
35027;DHT22;60696;51.426;6.934;2024-01-30T10:00:05;12.50;99.90
35027;DHT22;60696;51.426;6.934;2024-01-30T10:02:33;12.70;99.90
35027;DHT22;60696;51.426;6.934;2024-01-30T10:04:59;12.90;99.90
35027;DHT22;60696;51.426;6.934;2024-01-30T10:07:25;13.10;99.90
35027;DHT22;60696;51.426;6.934;2024-01-30T10:09:51;13.30;77.90
35027;DHT22;60696;51.426;6.934;2024-01-30T10:12:18;13.50;60.10
35027;DHT22;60696;51.426;6.934;2024-01-30T10:14:44;13.70;4.10
35027;DHT22;60696;51.426;6.934;2024-01-30T10:17:11;13.70;1.00
35027;DHT22;60696;51.426;6.934;2024-01-30T10:19:41;13.80;1.00
35027;DHT22;60696;51.426;6.934;2024-01-30T10:22:07;13.60;1.00
35027;DHT22;60696;51.426;6.934;2024-01-30T10:24:33;13.30;1.00
35027;DHT22;60696;51.426;6.934;2024-01-30T10:27:00;12.90;37.70
35027;DHT22;60696;51.426;6.934;2024-01-30T10:29:26;12.50;98.10
35027;DHT22;60696;51.426;6.934;2024-01-30T10:32:02;12.40;99.90
35027;DHT22;60696;51.426;6.934;2024-01-30T10:34:28;12.30;99.90
35027;DHT22;60696;51.426;6.934;2024-01-30T10:37:09;12.20;99.90
35027;DHT22;60696;51.426;6.934;2024-01-30T10:39:39;12.20;99.90
35027;DHT22;60696;51.426;6.934;2024-01-30T10:42:05;12.10;99.90
35027;DHT22;60696;51.426;6.934;2024-01-30T10:44:37;12.10;99.90
35027;DHT22;60696;51.426;6.934;2024-01-30T10:47:08;12.10;99.90
35027;DHT22;60696;51.426;6.934;2024-01-30T10:49:35;12.20;99.90
35027;DHT22;60696;51.426;6.934;2024-01-30T10:52:02;12.20;99.90
35027;DHT22;60696;51.426;6.934;2024-01-30T10:54:29;12.10;99.90
35027;DHT22;60696;51.426;6.934;2024-01-30T10:56:57;12.10;99.90
35027;DHT22;60696;51.426;6.934;2024-01-30T10:59:24;12.10;99.90
35027;DHT22;60696;51.426;6.934;2024-01-30T11:01:50;12.10;99.90
35027;DHT22;60696;51.426;6.934;2024-01-30T11:04:16;12.10;99.90
35027;DHT22;60696;51.426;6.934;2024-01-30T11:06:42;12.10;99.90
35027;DHT22;60696;51.426;6.934;2024-01-30T11:09:11;12.20;99.90
35027;DHT22;60696;51.426;6.934;2024-01-30T11:11:57;12.30;99.90
35027;DHT22;60696;51.426;6.934;2024-01-30T11:14:27;12.30;99.90
35027;DHT22;60696;51.426;6.934;2024-01-30T11:16:57;12.30;99.90
35027;DHT22;60696;51.426;6.934;2024-01-30T11:19:30;12.40;99.90
35027;DHT22;60696;51.426;6.934;2024-01-30T11:21:56;12.40;99.90
35027;DHT22;60696;51.426;6.934;2024-01-30T11:24:25;12.40;99.90
35027;DHT22;60696;51.426;6.934;2024-01-30T11:26:56;12.40;99.90
35027;DHT22;60696;51.426;6.934;2024-01-30T11:29:29;12.30;99.90
35027;DHT22;60696;51.426;6.934;2024-01-30T11:31:56;12.30;99.90
35027;DHT22;60696;51.426;6.934;2024-01-30T11:34:23;12.30;99.90
35027;DHT22;60696;51.426;6.934;2024-01-30T11:36:55;12.10;99.90
35027;DHT22;60696;51.426;6.934;2024-01-30T11:39:27;12.10;99.90
35027;DHT22;60696;51.426;6.934;2024-01-30T11:41:55;12.10;99.90
35027;DHT22;60696;51.426;6.934;2024-01-30T11:44:21;12.00;99.90
35027;DHT22;60696;51.426;6.934;2024-01-30T11:46:52;12.10;1.00
35027;DHT22;60696;51.426;6.934;2024-01-30T11:49:18;12.00;1.00
35027;DHT22;60696;51.426;6.934;2024-01-30T11:51:47;11.90;1.00
35027;DHT22;60696;51.426;6.934;2024-01-30T11:54:15;11.90;1.00
35027;DHT22;60696;51.426;6.934;2024-01-30T11:56:41;11.80;1.00
35027;DHT22;60696;51.426;6.934;2024-01-30T11:59:07;11.80;1.00
35027;DHT22;60696;51.426;6.934;2024-01-30T12:01:33;11.80;1.00
35027;DHT22;60696;51.426;6.934;2024-01-30T12:03:59;11.70;1.00
35027;DHT22;60696;51.426;6.934;2024-01-30T12:06:25;11.70;1.00
35027;DHT22;60696;51.426;6.934;2024-01-30T12:08:58;11.60;1.00
35027;DHT22;60696;51.426;6.934;2024-01-30T12:11:24;11.60;9.70
35027;DHT22;60696;51.426;6.934;2024-01-30T12:13:52;11.60;34.00
35027;DHT22;60696;51.426;6.934;2024-01-30T12:16:18;11.60;25.80
35027;DHT22;60696;51.426;6.934;2024-01-30T12:18:44;11.70;60.60
35027;DHT22;60696;51.426;6.934;2024-01-30T12:21:09;11.70;55.00
35027;DHT22;60696;51.426;6.934;2024-01-30T12:23:35;11.60;99.90
35027;DHT22;60696;51.426;6.934;2024-01-30T12:26:01;11.70;99.90
35027;DHT22;60696;51.426;6.934;2024-01-30T12:28:29;11.80;99.90
35027;DHT22;60696;51.426;6.934;2024-01-30T12:31:01;11.80;99.90
35027;DHT22;60696;51.426;6.934;2024-01-30T12:33:31;11.80;99.90
35027;DHT22;60696;51.426;6.934;2024-01-30T12:36:00;11.80;99.90
35027;DHT22;60696;51.426;6.934;2024-01-30T12:38:27;11.70;99.90
35027;DHT22;60696;51.426;6.934;2024-01-30T12:40:56;11.70;99.90
35027;DHT22;60696;51.426;6.934;2024-01-30T12:43:25;11.70;99.90
35027;DHT22;60696;51.426;6.934;2024-01-30T12:45:52;11.60;99.90
35027;DHT22;60696;51.426;6.934;2024-01-30T12:48:18;11.70;99.90
35027;DHT22;60696;51.426;6.934;2024-01-30T12:50:43;11.70;99.90
35027;DHT22;60696;51.426;6.934;2024-01-30T12:53:09;11.70;99.90
35027;DHT22;60696;51.426;6.934;2024-01-30T12:55:35;11.70;99.90
35027;DHT22;60696;51.426;6.934;2024-01-30T12:58:01;11.60;1.00
35027;DHT22;60696;51.426;6.934;2024-01-30T13:00:27;11.60;99.90
35027;DHT22;60696;51.426;6.934;2024-01-30T13:02:52;11.60;99.90
35027;DHT22;60696;51.426;6.934;2024-01-30T13:05:18;11.60;1.00
35027;DHT22;60696;51.426;6.934;2024-01-30T13:07:44;11.60;1.00
35027;DHT22;60696;51.426;6.934;2024-01-30T13:10:09;11.50;1.00
35027;DHT22;60696;51.426;6.934;2024-01-30T13:12:35;11.50;1.00
35027;DHT22;60696;51.426;6.934;2024-01-30T13:15:02;11.50;1.00
35027;DHT22;60696;51.426;6.934;2024-01-30T13:17:30;11.50;1.00
35027;DHT22;60696;51.426;6.934;2024-01-30T13:19:55;11.50;1.00
35027;DHT22;60696;51.426;6.934;2024-01-30T13:22:21;11.50;1.00
35027;DHT22;60696;51.426;6.934;2024-01-30T13:24:47;11.50;1.00
35027;DHT22;60696;51.426;6.934;2024-01-30T13:27:13;11.50;1.00
35027;DHT22;60696;51.426;6.934;2024-01-30T13:29:39;11.40;34.60
35027;DHT22;60696;51.426;6.934;2024-01-30T13:32:04;11.40;83.00
35027;DHT22;60696;51.426;6.934;2024-01-30T13:34:30;11.40;99.90
35027;DHT22;60696;51.426;6.934;2024-01-30T13:36:56;11.30;99.90
35027;DHT22;60696;51.426;6.934;2024-01-30T13:39:22;11.30;99.90
35027;DHT22;60696;51.426;6.934;2024-01-30T13:41:48;11.30;99.90
35027;DHT22;60696;51.426;6.934;2024-01-30T13:44:14;11.30;99.90
35027;DHT22;60696;51.426;6.934;2024-01-30T13:46:42;11.30;99.90
35027;DHT22;60696;51.426;6.934;2024-01-30T13:49:07;11.30;99.90
35027;DHT22;60696;51.426;6.934;2024-01-30T13:51:33;11.30;1.00
35027;DHT22;60696;51.426;6.934;2024-01-30T13:53:59;11.30;1.00
35027;DHT22;60696;51.426;6.934;2024-01-30T13:56:24;11.30;1.00
35027;DHT22;60696;51.426;6.934;2024-01-30T13:58:52;11.40;1.00
35027;DHT22;60696;51.426;6.934;2024-01-30T14:01:18;11.40;99.90
35027;DHT22;60696;51.426;6.934;2024-01-30T14:03:44;11.40;99.90
35027;DHT22;60696;51.426;6.934;2024-01-30T14:06:10;11.50;99.90
35027;DHT22;60696;51.426;6.934;2024-01-30T14:08:35;11.50;99.90
35027;DHT22;60696;51.426;6.934;2024-01-30T14:11:01;11.60;99.90
35027;DHT22;60696;51.426;6.934;2024-01-30T14:13:27;11.60;99.90
35027;DHT22;60696;51.426;6.934;2024-01-30T14:15:52;11.70;99.90
35027;DHT22;60696;51.426;6.934;2024-01-30T14:18:18;11.70;99.90
35027;DHT22;60696;51.426;6.934;2024-01-30T14:20:44;11.80;96.40
35027;DHT22;60696;51.426;6.934;2024-01-30T14:23:10;11.70;38.40
35027;DHT22;60696;51.426;6.934;2024-01-30T14:25:35;11.80;96.70
35027;DHT22;60696;51.426;6.934;2024-01-30T14:28:01;11.80;99.90
35027;DHT22;60696;51.426;6.934;2024-01-30T14:30:27;11.70;99.90
35027;DHT22;60696;51.426;6.934;2024-01-30T14:32:52;11.80;99.90
35027;DHT22;60696;51.426;6.934;2024-01-30T14:35:18;11.70;99.90
35027;DHT22;60696;51.426;6.934;2024-01-30T14:37:45;11.70;99.90
35027;DHT22;60696;51.426;6.934;2024-01-30T14:40:10;11.70;99.90
35027;DHT22;60696;51.426;6.934;2024-01-30T14:42:36;11.50;99.90
35027;DHT22;60696;51.426;6.934;2024-01-30T14:45:03;11.50;99.90
35027;DHT22;60696;51.426;6.934;2024-01-30T14:47:29;11.40;99.90
35027;DHT22;60696;51.426;6.934;2024-01-30T14:49:56;11.30;99.90
35027;DHT22;60696;51.426;6.934;2024-01-30T14:52:22;11.40;99.90
35027;DHT22;60696;51.426;6.934;2024-01-30T14:54:47;11.30;99.90
35027;DHT22;60696;51.426;6.934;2024-01-30T14:57:13;11.30;99.90
35027;DHT22;60696;51.426;6.934;2024-01-30T14:59:39;11.40;99.90
35027;DHT22;60696;51.426;6.934;2024-01-30T15:02:06;11.30;99.90
35027;DHT22;60696;51.426;6.934;2024-01-30T15:04:31;11.30;99.90
35027;DHT22;60696;51.426;6.934;2024-01-30T15:06:57;11.40;1.00
35027;DHT22;60696;51.426;6.934;2024-01-30T15:09:23;11.30;1.00
35027;DHT22;60696;51.426;6.934;2024-01-30T15:11:51;11.40;99.90
35027;DHT22;60696;51.426;6.934;2024-01-30T15:14:17;11.40;99.90
35027;DHT22;60696;51.426;6.934;2024-01-30T15:16:43;11.30;99.90
35027;DHT22;60696;51.426;6.934;2024-01-30T15:19:08;11.20;99.90
35027;DHT22;60696;51.426;6.934;2024-01-30T15:21:34;11.20;99.90
35027;DHT22;60696;51.426;6.934;2024-01-30T15:23:59;11.20;99.90
35027;DHT22;60696;51.426;6.934;2024-01-30T15:26:25;11.10;99.90
35027;DHT22;60696;51.426;6.934;2024-01-30T15:28:51;11.10;99.90
35027;DHT22;60696;51.426;6.934;2024-01-30T15:31:17;11.00;99.90
35027;DHT22;60696;51.426;6.934;2024-01-30T15:33:42;11.10;99.90
35027;DHT22;60696;51.426;6.934;2024-01-30T15:36:08;11.00;99.90
35027;DHT22;60696;51.426;6.934;2024-01-30T15:38:34;10.90;52.60
35027;DHT22;60696;51.426;6.934;2024-01-30T15:41:00;10.90;20.30
35027;DHT22;60696;51.426;6.934;2024-01-30T15:43:27;10.80;1.00
35027;DHT22;60696;51.426;6.934;2024-01-30T15:45:53;10.70;1.00
35027;DHT22;60696;51.426;6.934;2024-01-30T15:48:19;10.70;1.00
35027;DHT22;60696;51.426;6.934;2024-01-30T15:50:45;10.70;99.90
35027;DHT22;60696;51.426;6.934;2024-01-30T15:53:10;10.60;99.90
35027;DHT22;60696;51.426;6.934;2024-01-30T15:55:36;10.60;99.90
35027;DHT22;60696;51.426;6.934;2024-01-30T15:58:03;10.50;99.90
35027;DHT22;60696;51.426;6.934;2024-01-30T16:00:29;10.50;99.90
35027;DHT22;60696;51.426;6.934;2024-01-30T16:02:56;10.40;99.90
35027;DHT22;60696;51.426;6.934;2024-01-30T16:05:23;10.40;99.90
35027;DHT22;60696;51.426;6.934;2024-01-30T16:07:49;10.40;99.90
35027;DHT22;60696;51.426;6.934;2024-01-30T16:10:14;10.40;99.90
35027;DHT22;60696;51.426;6.934;2024-01-30T16:12:42;10.30;99.90
35027;DHT22;60696;51.426;6.934;2024-01-30T16:15:14;10.30;99.90
35027;DHT22;60696;51.426;6.934;2024-01-30T16:17:40;10.30;96.60
35027;DHT22;60696;51.426;6.934;2024-01-30T16:20:06;10.20;99.90
35027;DHT22;60696;51.426;6.934;2024-01-30T16:22:33;10.10;99.90
35027;DHT22;60696;51.426;6.934;2024-01-30T16:24:59;10.10;99.90
35027;DHT22;60696;51.426;6.934;2024-01-30T16:27:24;10.10;99.90
35027;DHT22;60696;51.426;6.934;2024-01-30T16:29:50;10.00;99.90
35027;DHT22;60696;51.426;6.934;2024-01-30T16:32:15;9.90;99.90
35027;DHT22;60696;51.426;6.934;2024-01-30T16:34:41;9.90;99.90
35027;DHT22;60696;51.426;6.934;2024-01-30T16:37:07;9.70;99.90
35027;DHT22;60696;51.426;6.934;2024-01-30T16:39:32;9.60;99.90
35027;DHT22;60696;51.426;6.934;2024-01-30T16:41:58;9.50;99.90
35027;DHT22;60696;51.426;6.934;2024-01-30T16:44:24;9.40;99.90
35027;DHT22;60696;51.426;6.934;2024-01-30T16:46:50;9.30;99.90
35027;DHT22;60696;51.426;6.934;2024-01-30T16:49:16;9.20;99.90
35027;DHT22;60696;51.426;6.934;2024-01-30T16:51:41;9.30;99.90
35027;DHT22;60696;51.426;6.934;2024-01-30T16:54:08;9.30;99.90
35027;DHT22;60696;51.426;6.934;2024-01-30T16:56:34;9.30;99.90
35027;DHT22;60696;51.426;6.934;2024-01-30T16:58:59;9.40;99.90
35027;DHT22;60696;51.426;6.934;2024-01-30T17:01:25;9.50;99.90
35027;DHT22;60696;51.426;6.934;2024-01-30T17:03:51;9.50;99.90
35027;DHT22;60696;51.426;6.934;2024-01-30T17:06:16;9.50;99.90
35027;DHT22;60696;51.426;6.934;2024-01-30T17:08:42;9.50;99.90
35027;DHT22;60696;51.426;6.934;2024-01-30T17:11:08;9.60;99.90
35027;DHT22;60696;51.426;6.934;2024-01-30T17:13:37;9.60;99.90
35027;DHT22;60696;51.426;6.934;2024-01-30T17:16:03;9.60;99.90
35027;DHT22;60696;51.426;6.934;2024-01-30T17:18:30;9.70;99.90
35027;DHT22;60696;51.426;6.934;2024-01-30T17:20:56;9.60;99.90
35027;DHT22;60696;51.426;6.934;2024-01-30T17:23:22;9.60;99.90
35027;DHT22;60696;51.426;6.934;2024-01-30T17:25:50;9.60;99.90
35027;DHT22;60696;51.426;6.934;2024-01-30T17:28:16;9.60;99.90
35027;DHT22;60696;51.426;6.934;2024-01-30T17:30:42;9.60;99.90
35027;DHT22;60696;51.426;6.934;2024-01-30T17:33:08;9.60;99.90
35027;DHT22;60696;51.426;6.934;2024-01-30T17:35:34;9.60;99.90
35027;DHT22;60696;51.426;6.934;2024-01-30T17:37:59;9.50;99.90
35027;DHT22;60696;51.426;6.934;2024-01-30T17:40:25;9.40;1.00
35027;DHT22;60696;51.426;6.934;2024-01-30T17:42:50;9.30;1.00
35027;DHT22;60696;51.426;6.934;2024-01-30T17:45:16;9.30;1.00
35027;DHT22;60696;51.426;6.934;2024-01-30T17:47:41;9.30;1.00
35027;DHT22;60696;51.426;6.934;2024-01-30T17:50:08;9.30;1.00
35027;DHT22;60696;51.426;6.934;2024-01-30T17:52:33;9.10;51.10
35027;DHT22;60696;51.426;6.934;2024-01-30T17:54:59;9.00;72.90
35027;DHT22;60696;51.426;6.934;2024-01-30T17:57:25;9.00;99.90
35027;DHT22;60696;51.426;6.934;2024-01-30T17:59:50;9.00;99.90
35027;DHT22;60696;51.426;6.934;2024-01-30T18:02:16;8.90;17.10
35027;DHT22;60696;51.426;6.934;2024-01-30T18:04:42;8.90;81.10
35027;DHT22;60696;51.426;6.934;2024-01-30T18:07:08;8.90;85.50
35027;DHT22;60696;51.426;6.934;2024-01-30T18:09:34;8.80;99.90
35027;DHT22;60696;51.426;6.934;2024-01-30T18:12:03;8.80;99.90
35027;DHT22;60696;51.426;6.934;2024-01-30T18:14:28;8.80;99.90
35027;DHT22;60696;51.426;6.934;2024-01-30T18:16:54;8.80;99.90
35027;DHT22;60696;51.426;6.934;2024-01-30T18:19:20;8.80;51.10
35027;DHT22;60696;51.426;6.934;2024-01-30T18:21:46;8.70;74.10
35027;DHT22;60696;51.426;6.934;2024-01-30T18:24:11;8.70;45.50
35027;DHT22;60696;51.426;6.934;2024-01-30T18:26:37;8.70;37.00
35027;DHT22;60696;51.426;6.934;2024-01-30T18:29:03;8.70;34.00
35027;DHT22;60696;51.426;6.934;2024-01-30T18:31:29;8.70;25.50
35027;DHT22;60696;51.426;6.934;2024-01-30T18:33:55;8.70;8.20
35027;DHT22;60696;51.426;6.934;2024-01-30T18:36:22;8.60;1.00
35027;DHT22;60696;51.426;6.934;2024-01-30T18:38:51;8.60;2.10
35027;DHT22;60696;51.426;6.934;2024-01-30T18:41:17;8.60;12.10
35027;DHT22;60696;51.426;6.934;2024-01-30T18:43:43;8.60;32.10
35027;DHT22;60696;51.426;6.934;2024-01-30T18:46:10;8.60;6.90
35027;DHT22;60696;51.426;6.934;2024-01-30T18:48:36;8.60;61.10
35027;DHT22;60696;51.426;6.934;2024-01-30T18:51:03;8.60;43.00
35027;DHT22;60696;51.426;6.934;2024-01-30T18:53:29;8.60;83.10
35027;DHT22;60696;51.426;6.934;2024-01-30T18:55:54;8.60;95.40
35027;DHT22;60696;51.426;6.934;2024-01-30T18:58:20;8.60;98.10
35027;DHT22;60696;51.426;6.934;2024-01-30T19:00:47;8.60;97.10
35027;DHT22;60696;51.426;6.934;2024-01-30T19:03:12;8.60;85.10
35027;DHT22;60696;51.426;6.934;2024-01-30T19:05:40;8.50;90.80
35027;DHT22;60696;51.426;6.934;2024-01-30T19:08:05;8.50;99.80
35027;DHT22;60696;51.426;6.934;2024-01-30T19:10:31;8.60;95.30
35027;DHT22;60696;51.426;6.934;2024-01-30T19:12:57;8.50;53.30
35027;DHT22;60696;51.426;6.934;2024-01-30T19:15:22;8.50;84.00
35027;DHT22;60696;51.426;6.934;2024-01-30T19:17:48;8.50;99.90
35027;DHT22;60696;51.426;6.934;2024-01-30T19:20:13;8.50;99.90
35027;DHT22;60696;51.426;6.934;2024-01-30T19:22:39;8.40;99.90
35027;DHT22;60696;51.426;6.934;2024-01-30T19:25:05;8.50;99.90
35027;DHT22;60696;51.426;6.934;2024-01-30T19:27:31;8.40;99.90
35027;DHT22;60696;51.426;6.934;2024-01-30T19:29:57;8.40;99.90
35027;DHT22;60696;51.426;6.934;2024-01-30T19:32:23;8.30;99.90
35027;DHT22;60696;51.426;6.934;2024-01-30T19:34:49;8.30;99.90
35027;DHT22;60696;51.426;6.934;2024-01-30T19:37:15;8.30;99.90
35027;DHT22;60696;51.426;6.934;2024-01-30T19:39:42;8.30;99.90
35027;DHT22;60696;51.426;6.934;2024-01-30T19:42:11;8.30;99.90
35027;DHT22;60696;51.426;6.934;2024-01-30T19:44:36;8.30;1.00
35027;DHT22;60696;51.426;6.934;2024-01-30T19:47:03;8.30;1.00
35027;DHT22;60696;51.426;6.934;2024-01-30T19:49:35;8.20;1.00
35027;DHT22;60696;51.426;6.934;2024-01-30T19:52:01;8.20;1.00
35027;DHT22;60696;51.426;6.934;2024-01-30T19:54:31;8.20;90.20
35027;DHT22;60696;51.426;6.934;2024-01-30T19:56:58;8.10;99.90
35027;DHT22;60696;51.426;6.934;2024-01-30T19:59:25;8.10;99.90
35027;DHT22;60696;51.426;6.934;2024-01-30T20:01:52;8.00;99.90
35027;DHT22;60696;51.426;6.934;2024-01-30T20:04:17;8.10;99.90
35027;DHT22;60696;51.426;6.934;2024-01-30T20:06:43;8.10;99.90
35027;DHT22;60696;51.426;6.934;2024-01-30T20:09:08;8.10;99.90
35027;DHT22;60696;51.426;6.934;2024-01-30T20:11:34;8.10;99.90
35027;DHT22;60696;51.426;6.934;2024-01-30T20:13:59;8.10;99.90
35027;DHT22;60696;51.426;6.934;2024-01-30T20:16:25;8.00;99.90
35027;DHT22;60696;51.426;6.934;2024-01-30T20:19:00;8.10;99.90
35027;DHT22;60696;51.426;6.934;2024-01-30T20:21:25;8.10;99.90
35027;DHT22;60696;51.426;6.934;2024-01-30T20:23:51;8.10;48.30
35027;DHT22;60696;51.426;6.934;2024-01-30T20:26:16;8.00;99.90
35027;DHT22;60696;51.426;6.934;2024-01-30T20:28:42;7.90;1.00
35027;DHT22;60696;51.426;6.934;2024-01-30T20:31:14;7.80;1.00
35027;DHT22;60696;51.426;6.934;2024-01-30T20:33:39;7.70;99.90
35027;DHT22;60696;51.426;6.934;2024-01-30T20:36:06;7.70;99.90